Daytona Beach International Airport
KDAB : now visible

Airfield :











YOU CAN JOIN US ON...

 
LOGIN :

Register | Disclaimer

   EN    FR    IT 

 









Legend :    VFR   Marginal VFR   IFR   Intensive IFR   Very Intensive IFR
Visi :
Ceiling :
>= 8 km
>= 3000ft
5 to 8 km
1000 to 3000 ft
1500m to 5 km
500 to 1000 ft
800 to 1500m
200 to 500 ft
< 800m
< 200 ft
Symbols :   Thunderstorms  Fog  Heavy snow  Heavy precipitations  Wind > 20 kt






- Airport Elevation : 34 ft
- IATA code : DAB


KDAB - Daytona Beach International

CURRENT METAR :
  • 192253Z 26004KT 10SM CLR 14/07 A2997 RMK AO2 SLP148 T01390067

EXPIRED METARs :
  • 192153Z 25007KT 10SM CLR 18/06 A2995 RMK AO2 SLP140 T01780056
  • 192053Z 29009KT 10SM CLR 20/04 A2993 RMK AO2 SLP135 T02000044 53002
  • 191953Z 28011KT 10SM CLR 20/04 A2992 RMK AO2 SLP130 T02000044

TAF KDAB
Valid from the 19 at 18:00 until the 20 at 18:00 UTC


191757Z 1918/2018 30011KT P6SM SKC
FM192300 29006KT P6SM FEW250
FM201500 33006KT P6SM FEW040



MET'MAP, your aeronautical weather chart ! - Copyright ORBIFLY December 2007 - Disclaimer

ORBIFLY MET'MAP TEAM :

Programming & Development : Alexandra Zaïnal
Concept & Development : Baudouin d'Aumeries
Co-Development & Prog : Marc-Olivier Méhu
Technical & hardware support : Manuel Goepfert

Contact : metmap@orbifly.com




SOURCES & CREDITS :

   NOAA       Earth
Advisory